sensor_id;sensor_type;location;lat;lon;timestamp;pressure;altitude;pressure_sealevel;temperature;humidity
45078;BME280;60508;42.622;25.416;2023-01-30T00:01:53;97019.97;;;2.81;82.08
45078;BME280;60508;42.622;25.416;2023-01-30T00:04:19;97028.56;;;2.83;82.02
45078;BME280;60508;42.622;25.416;2023-01-30T00:06:46;97031.16;;;2.77;82.09
45078;BME280;60508;42.622;25.416;2023-01-30T00:09:13;97029.44;;;2.90;81.86
45078;BME280;60508;42.622;25.416;2023-01-30T00:11:41;97022.63;;;2.81;82.54
45078;BME280;60508;42.622;25.416;2023-01-30T00:14:08;97033.50;;;2.86;82.47
45078;BME280;60508;42.622;25.416;2023-01-30T00:16:34;97029.72;;;2.96;81.87
45078;BME280;60508;42.622;25.416;2023-01-30T00:19:00;97005.13;;;2.87;81.25
45078;BME280;60508;42.622;25.416;2023-01-30T00:21:26;97025.53;;;3.08;81.28
45078;BME280;60508;42.622;25.416;2023-01-30T00:23:52;97027.19;;;3.09;80.99
45078;BME280;60508;42.622;25.416;2023-01-30T00:26:18;97021.88;;;3.09;81.09
45078;BME280;60508;42.622;25.416;2023-01-30T00:28:45;97015.84;;;3.00;81.34
45078;BME280;60508;42.622;25.416;2023-01-30T00:31:10;97018.13;;;3.03;81.05
45078;BME280;60508;42.622;25.416;2023-01-30T00:33:37;97021.75;;;2.96;81.50
45078;BME280;60508;42.622;25.416;2023-01-30T00:36:04;97017.81;;;2.91;82.02
45078;BME280;60508;42.622;25.416;2023-01-30T00:38:30;97013.19;;;2.79;82.23
45078;BME280;60508;42.622;25.416;2023-01-30T00:40:57;97010.47;;;2.93;82.34
45078;BME280;60508;42.622;25.416;2023-01-30T00:43:23;97007.78;;;2.87;81.89
45078;BME280;60508;42.622;25.416;2023-01-30T00:46:19;97012.50;;;2.91;82.10
45078;BME280;60508;42.622;25.416;2023-01-30T00:49:05;97006.66;;;2.96;81.80
45078;BME280;60508;42.622;25.416;2023-01-30T00:51:31;96999.00;;;2.86;81.57
45078;BME280;60508;42.622;25.416;2023-01-30T00:53:58;97010.03;;;2.90;81.90
45078;BME280;60508;42.622;25.416;2023-01-30T00:56:24;97000.34;;;2.97;81.84
45078;BME280;60508;42.622;25.416;2023-01-30T00:58:50;97006.69;;;3.03;81.79
45078;BME280;60508;42.622;25.416;2023-01-30T01:01:16;97007.44;;;2.97;81.64
45078;BME280;60508;42.622;25.416;2023-01-30T01:03:42;96997.28;;;3.00;81.76
45078;BME280;60508;42.622;25.416;2023-01-30T01:06:08;96991.97;;;3.00;81.46
45078;BME280;60508;42.622;25.416;2023-01-30T01:08:34;96984.41;;;2.97;81.56
45078;BME280;60508;42.622;25.416;2023-01-30T01:11:00;96992.47;;;3.10;80.63
45078;BME280;60508;42.622;25.416;2023-01-30T01:13:26;96987.94;;;3.04;80.98
45078;BME280;60508;42.622;25.416;2023-01-30T01:15:52;96993.31;;;2.89;81.53
45078;BME280;60508;42.622;25.416;2023-01-30T01:18:18;96994.50;;;2.87;81.75
45078;BME280;60508;42.622;25.416;2023-01-30T01:20:45;96988.81;;;2.90;81.59
45078;BME280;60508;42.622;25.416;2023-01-30T01:23:11;96988.00;;;2.89;81.41
45078;BME280;60508;42.622;25.416;2023-01-30T01:25:37;96984.50;;;2.89;81.63
45078;BME280;60508;42.622;25.416;2023-01-30T01:28:05;96982.56;;;2.98;81.83
45078;BME280;60508;42.622;25.416;2023-01-30T01:30:31;96972.31;;;2.95;81.74
45078;BME280;60508;42.622;25.416;2023-01-30T01:32:57;96959.88;;;2.73;82.15
45078;BME280;60508;42.622;25.416;2023-01-30T01:35:23;96973.78;;;2.97;82.01
45078;BME280;60508;42.622;25.416;2023-01-30T01:37:52;96956.91;;;2.83;81.86
45078;BME280;60508;42.622;25.416;2023-01-30T01:40:20;96970.09;;;2.98;82.31
45078;BME280;60508;42.622;25.416;2023-01-30T01:43:21;96967.00;;;2.95;82.52
45078;BME280;60508;42.622;25.416;2023-01-30T01:45:49;96960.63;;;2.89;82.64
45078;BME280;60508;42.622;25.416;2023-01-30T01:48:31;96949.06;;;2.97;82.65
45078;BME280;60508;42.622;25.416;2023-01-30T01:51:11;96950.66;;;2.91;83.00
45078;BME280;60508;42.622;25.416;2023-01-30T01:53:52;96943.41;;;2.78;83.62
45078;BME280;60508;42.622;25.416;2023-01-30T01:56:20;96944.13;;;2.93;83.06
45078;BME280;60508;42.622;25.416;2023-01-30T01:58:50;96941.03;;;2.90;83.42
45078;BME280;60508;42.622;25.416;2023-01-30T02:01:17;96948.63;;;2.93;83.44
45078;BME280;60508;42.622;25.416;2023-01-30T02:03:49;96929.28;;;2.78;83.15
45078;BME280;60508;42.622;25.416;2023-01-30T02:06:17;96936.94;;;2.87;83.58
45078;BME280;60508;42.622;25.416;2023-01-30T02:08:47;96935.94;;;2.88;84.01
45078;BME280;60508;42.622;25.416;2023-01-30T02:11:25;96929.28;;;2.99;83.09
45078;BME280;60508;42.622;25.416;2023-01-30T02:13:54;96932.31;;;2.96;83.60
45078;BME280;60508;42.622;25.416;2023-01-30T02:16:21;96942.00;;;3.04;83.27
45078;BME280;60508;42.622;25.416;2023-01-30T02:18:47;96917.06;;;3.05;83.05
45078;BME280;60508;42.622;25.416;2023-01-30T02:24:11;96924.16;;;2.98;82.66
45078;BME280;60508;42.622;25.416;2023-01-30T02:35:18;96910.28;;;2.74;83.34
45078;BME280;60508;42.622;25.416;2023-01-30T02:46:50;96912.75;;;2.76;82.70
45078;BME280;60508;42.622;25.416;2023-01-30T02:49:28;96918.44;;;2.72;83.27
45078;BME280;60508;42.622;25.416;2023-01-30T02:51:56;96914.59;;;2.75;82.97
45078;BME280;60508;42.622;25.416;2023-01-30T02:54:25;96914.63;;;2.82;82.49
45078;BME280;60508;42.622;25.416;2023-01-30T02:56:57;96896.59;;;2.49;83.10
45078;BME280;60508;42.622;25.416;2023-01-30T02:59:37;96913.63;;;2.61;83.26
45078;BME280;60508;42.622;25.416;2023-01-30T03:07:44;96916.16;;;2.69;82.32
45078;BME280;60508;42.622;25.416;2023-01-30T03:10:45;96922.53;;;2.75;82.25
45078;BME280;60508;42.622;25.416;2023-01-30T03:16:28;96913.56;;;2.76;82.14
45078;BME280;60508;42.622;25.416;2023-01-30T03:19:00;96916.72;;;2.65;82.58
45078;BME280;60508;42.622;25.416;2023-01-30T03:21:30;96909.59;;;2.65;82.25
45078;BME280;60508;42.622;25.416;2023-01-30T03:23:56;96923.50;;;2.46;83.16
45078;BME280;60508;42.622;25.416;2023-01-30T03:26:26;96922.94;;;2.50;83.59
45078;BME280;60508;42.622;25.416;2023-01-30T03:28:54;96923.25;;;2.62;83.72
45078;BME280;60508;42.622;25.416;2023-01-30T03:31:20;96924.31;;;2.46;84.09
45078;BME280;60508;42.622;25.416;2023-01-30T03:33:46;96917.06;;;2.77;83.01
45078;BME280;60508;42.622;25.416;2023-01-30T03:36:13;96916.66;;;2.80;82.53
45078;BME280;60508;42.622;25.416;2023-01-30T03:38:39;96906.50;;;2.62;82.33
45078;BME280;60508;42.622;25.416;2023-01-30T03:41:05;96909.72;;;2.57;83.24
45078;BME280;60508;42.622;25.416;2023-01-30T03:43:33;96921.78;;;2.60;83.45
45078;BME280;60508;42.622;25.416;2023-01-30T03:46:01;96912.38;;;2.57;83.42
45078;BME280;60508;42.622;25.416;2023-01-30T03:48:28;96923.94;;;2.49;83.90
45078;BME280;60508;42.622;25.416;2023-01-30T03:50:55;96916.03;;;2.34;84.08
45078;BME280;60508;42.622;25.416;2023-01-30T03:53:22;96912.31;;;2.50;83.74
45078;BME280;60508;42.622;25.416;2023-01-30T03:55:48;96912.38;;;2.57;83.22
45078;BME280;60508;42.622;25.416;2023-01-30T03:58:15;96916.41;;;2.53;83.48
45078;BME280;60508;42.622;25.416;2023-01-30T04:00:41;96912.56;;;2.55;83.59
45078;BME280;60508;42.622;25.416;2023-01-30T04:03:08;96903.91;;;2.47;83.76
45078;BME280;60508;42.622;25.416;2023-01-30T04:05:34;96901.78;;;2.57;83.41
45078;BME280;60508;42.622;25.416;2023-01-30T04:08:05;96897.16;;;2.66;82.35
45078;BME280;60508;42.622;25.416;2023-01-30T04:10:31;96897.34;;;2.43;82.89
45078;BME280;60508;42.622;25.416;2023-01-30T04:12:56;96900.09;;;2.78;81.34
45078;BME280;60508;42.622;25.416;2023-01-30T04:15:23;96906.72;;;2.88;80.79
45078;BME280;60508;42.622;25.416;2023-01-30T04:17:57;96898.47;;;2.77;80.56
45078;BME280;60508;42.622;25.416;2023-01-30T04:20:44;96895.56;;;2.50;81.50
45078;BME280;60508;42.622;25.416;2023-01-30T04:23:12;96899.56;;;2.39;82.16
45078;BME280;60508;42.622;25.416;2023-01-30T04:25:39;96898.84;;;2.30;83.33
45078;BME280;60508;42.622;25.416;2023-01-30T04:28:08;96892.84;;;2.43;83.10
45078;BME280;60508;42.622;25.416;2023-01-30T04:30:36;96893.59;;;2.37;83.00
45078;BME280;60508;42.622;25.416;2023-01-30T04:33:21;96899.16;;;2.42;83.19
45078;BME280;60508;42.622;25.416;2023-01-30T04:35:51;96897.53;;;2.41;83.27
45078;BME280;60508;42.622;25.416;2023-01-30T04:38:17;96899.34;;;2.41;83.09
45078;BME280;60508;42.622;25.416;2023-01-30T04:40:52;96893.41;;;2.38;83.05
45078;BME280;60508;42.622;25.416;2023-01-30T04:43:19;96888.59;;;2.27;83.00
45078;BME280;60508;42.622;25.416;2023-01-30T04:46:07;96886.00;;;2.49;81.96
45078;BME280;60508;42.622;25.416;2023-01-30T04:48:33;96888.09;;;2.38;81.66
45078;BME280;60508;42.622;25.416;2023-01-30T04:51:01;96881.44;;;2.43;80.67
45078;BME280;60508;42.622;25.416;2023-01-30T04:53:27;96897.78;;;2.46;78.67
45078;BME280;60508;42.622;25.416;2023-01-30T04:55:53;96891.19;;;2.42;76.46
45078;BME280;60508;42.622;25.416;2023-01-30T04:58:20;96886.22;;;2.54;73.70
45078;BME280;60508;42.622;25.416;2023-01-30T05:00:46;96887.03;;;2.54;69.82
45078;BME280;60508;42.622;25.416;2023-01-30T05:03:13;96891.66;;;2.67;67.48
45078;BME280;60508;42.622;25.416;2023-01-30T05:05:39;96892.94;;;2.71;66.01
45078;BME280;60508;42.622;25.416;2023-01-30T05:08:08;96896.44;;;2.79;65.09
45078;BME280;60508;42.622;25.416;2023-01-30T05:10:34;96896.13;;;2.88;63.06
45078;BME280;60508;42.622;25.416;2023-01-30T05:13:03;96894.88;;;2.84;63.28
45078;BME280;60508;42.622;25.416;2023-01-30T05:15:31;96890.13;;;2.80;63.74
45078;BME280;60508;42.622;25.416;2023-01-30T05:17:58;96891.50;;;2.76;69.03
45078;BME280;60508;42.622;25.416;2023-01-30T05:20:24;96889.25;;;2.72;73.77
45078;BME280;60508;42.622;25.416;2023-01-30T05:22:50;96890.50;;;2.55;76.49
45078;BME280;60508;42.622;25.416;2023-01-30T05:25:16;96890.50;;;2.55;77.96
45078;BME280;60508;42.622;25.416;2023-01-30T05:27:43;96889.25;;;2.51;79.06
45078;BME280;60508;42.622;25.416;2023-01-30T05:30:09;96870.50;;;2.52;78.94
45078;BME280;60508;42.622;25.416;2023-01-30T05:32:36;96881.31;;;2.51;79.21
45078;BME280;60508;42.622;25.416;2023-01-30T05:35:02;96885.09;;;2.42;79.54
45078;BME280;60508;42.622;25.416;2023-01-30T05:37:28;96890.00;;;2.45;79.73
45078;BME280;60508;42.622;25.416;2023-01-30T05:39:53;96894.56;;;2.51;79.40
45078;BME280;60508;42.622;25.416;2023-01-30T05:42:20;96892.66;;;2.45;79.51
45078;BME280;60508;42.622;25.416;2023-01-30T05:44:46;96897.00;;;2.31;79.79
45078;BME280;60508;42.622;25.416;2023-01-30T05:47:11;96895.06;;;2.40;79.70
45078;BME280;60508;42.622;25.416;2023-01-30T05:49:37;96906.38;;;2.48;79.27
45078;BME280;60508;42.622;25.416;2023-01-30T05:52:03;96908.56;;;2.45;79.39
45078;BME280;60508;42.622;25.416;2023-01-30T05:54:29;96900.00;;;2.43;79.79
45078;BME280;60508;42.622;25.416;2023-01-30T05:56:56;96917.47;;;2.37;79.70
45078;BME280;60508;42.622;25.416;2023-01-30T05:59:22;96917.22;;;2.32;80.00
45078;BME280;60508;42.622;25.416;2023-01-30T06:01:48;96904.22;;;2.37;80.17
45078;BME280;60508;42.622;25.416;2023-01-30T06:04:14;96908.63;;;2.30;80.51
45078;BME280;60508;42.622;25.416;2023-01-30T06:06:40;96924.97;;;2.12;81.00
45078;BME280;60508;42.622;25.416;2023-01-30T06:09:05;96914.78;;;2.15;81.71
45078;BME280;60508;42.622;25.416;2023-01-30T06:11:31;96917.59;;;2.29;81.14
45078;BME280;60508;42.622;25.416;2023-01-30T06:13:57;96920.97;;;2.37;81.05
45078;BME280;60508;42.622;25.416;2023-01-30T06:16:23;96927.25;;;2.36;81.03
45078;BME280;60508;42.622;25.416;2023-01-30T06:18:49;96914.00;;;2.36;81.20
45078;BME280;60508;42.622;25.416;2023-01-30T06:21:16;96915.66;;;2.37;80.78
45078;BME280;60508;42.622;25.416;2023-01-30T06:23:42;96922.59;;;2.38;80.53
45078;BME280;60508;42.622;25.416;2023-01-30T06:26:08;96925.03;;;2.40;80.55
45078;BME280;60508;42.622;25.416;2023-01-30T06:28:36;96915.22;;;2.55;80.03
45078;BME280;60508;42.622;25.416;2023-01-30T06:31:01;96914.66;;;2.60;79.71
45078;BME280;60508;42.622;25.416;2023-01-30T06:33:27;96915.66;;;2.59;79.96
45078;BME280;60508;42.622;25.416;2023-01-30T06:35:53;96903.44;;;2.65;79.25
45078;BME280;60508;42.622;25.416;2023-01-30T06:38:19;96913.56;;;2.54;79.49
45078;BME280;60508;42.622;25.416;2023-01-30T06:40:47;96912.31;;;2.14;80.02
45078;BME280;60508;42.622;25.416;2023-01-30T06:43:14;96917.44;;;2.15;81.45
45078;BME280;60508;42.622;25.416;2023-01-30T06:45:41;96909.13;;;2.40;80.86
45078;BME280;60508;42.622;25.416;2023-01-30T06:48:08;96910.22;;;2.46;80.08
45078;BME280;60508;42.622;25.416;2023-01-30T06:50:34;96906.69;;;2.60;79.38
45078;BME280;60508;42.622;25.416;2023-01-30T06:53:02;96917.94;;;2.62;79.20
45078;BME280;60508;42.622;25.416;2023-01-30T06:55:29;96907.94;;;2.64;79.26
45078;BME280;60508;42.622;25.416;2023-01-30T06:58:04;96924.94;;;2.70;79.17
45078;BME280;60508;42.622;25.416;2023-01-30T07:00:30;96915.81;;;2.79;79.12
45078;BME280;60508;42.622;25.416;2023-01-30T07:02:57;96918.84;;;2.76;79.40
45078;BME280;60508;42.622;25.416;2023-01-30T07:05:23;96912.38;;;2.79;79.09
45078;BME280;60508;42.622;25.416;2023-01-30T07:07:50;96917.53;;;2.87;79.36
45078;BME280;60508;42.622;25.416;2023-01-30T07:10:15;96908.66;;;3.01;78.91
45078;BME280;60508;42.622;25.416;2023-01-30T07:12:44;96919.09;;;3.03;78.55
45078;BME280;60508;42.622;25.416;2023-01-30T07:15:10;96906.78;;;2.95;79.21
45078;BME280;60508;42.622;25.416;2023-01-30T07:17:36;96908.44;;;2.96;79.07
45078;BME280;60508;42.622;25.416;2023-01-30T07:20:04;96903.50;;;2.93;79.59
45078;BME280;60508;42.622;25.416;2023-01-30T07:22:30;96908.47;;;3.03;79.33
45078;BME280;60508;42.622;25.416;2023-01-30T07:24:56;96893.09;;;2.91;79.48
45078;BME280;60508;42.622;25.416;2023-01-30T07:27:22;96899.47;;;2.97;79.46
45078;BME280;60508;42.622;25.416;2023-01-30T07:29:48;96881.28;;;2.94;79.79
45078;BME280;60508;42.622;25.416;2023-01-30T07:32:16;96895.88;;;3.11;79.01
45078;BME280;60508;42.622;25.416;2023-01-30T07:34:44;96892.25;;;3.19;78.65
45078;BME280;60508;42.622;25.416;2023-01-30T07:37:10;96886.22;;;3.32;78.00
45078;BME280;60508;42.622;25.416;2023-01-30T07:39:37;96889.09;;;3.37;78.09
45078;BME280;60508;42.622;25.416;2023-01-30T07:42:03;96897.53;;;3.41;77.80
45078;BME280;60508;42.622;25.416;2023-01-30T07:44:30;96888.69;;;3.34;77.38
45078;BME280;60508;42.622;25.416;2023-01-30T07:46:57;96890.38;;;3.41;77.59
45078;BME280;60508;42.622;25.416;2023-01-30T07:49:22;96893.59;;;3.37;76.66
45078;BME280;60508;42.622;25.416;2023-01-30T07:51:48;96892.22;;;3.41;76.79
45078;BME280;60508;42.622;25.416;2023-01-30T07:54:15;96887.69;;;3.35;76.99
45078;BME280;60508;42.622;25.416;2023-01-30T07:56:41;96870.91;;;3.34;76.90
45078;BME280;60508;42.622;25.416;2023-01-30T07:59:09;96891.88;;;3.51;76.45
45078;BME280;60508;42.622;25.416;2023-01-30T08:01:35;96872.47;;;3.22;76.33
45078;BME280;60508;42.622;25.416;2023-01-30T08:04:01;96880.63;;;2.92;76.72
45078;BME280;60508;42.622;25.416;2023-01-30T08:06:27;96866.91;;;2.60;78.82
45078;BME280;60508;42.622;25.416;2023-01-30T08:08:53;96872.78;;;3.05;78.36
45078;BME280;60508;42.622;25.416;2023-01-30T08:11:20;96872.50;;;3.28;77.79
45078;BME280;60508;42.622;25.416;2023-01-30T08:13:46;96874.00;;;3.38;77.09
45078;BME280;60508;42.622;25.416;2023-01-30T08:16:12;96881.47;;;3.56;76.46
45078;BME280;60508;42.622;25.416;2023-01-30T08:18:39;96868.06;;;3.77;74.87
45078;BME280;60508;42.622;25.416;2023-01-30T08:21:05;96867.44;;;3.75;75.32
45078;BME280;60508;42.622;25.416;2023-01-30T08:23:32;96878.13;;;3.47;75.87
45078;BME280;60508;42.622;25.416;2023-01-30T08:26:01;96873.78;;;3.74;75.53
45078;BME280;60508;42.622;25.416;2023-01-30T08:28:28;96880.56;;;3.83;75.27
45078;BME280;60508;42.622;25.416;2023-01-30T08:30:55;96874.88;;;3.93;75.03
45078;BME280;60508;42.622;25.416;2023-01-30T08:33:22;96884.75;;;4.06;74.83
45078;BME280;60508;42.622;25.416;2023-01-30T08:35:49;96869.19;;;4.10;73.76
45078;BME280;60508;42.622;25.416;2023-01-30T08:38:15;96874.94;;;4.13;73.68
45078;BME280;60508;42.622;25.416;2023-01-30T08:40:42;96866.22;;;4.33;73.38
45078;BME280;60508;42.622;25.416;2023-01-30T08:43:08;96859.28;;;3.77;72.19
45078;BME280;60508;42.622;25.416;2023-01-30T08:45:35;96863.84;;;3.48;74.11
45078;BME280;60508;42.622;25.416;2023-01-30T08:48:04;96880.88;;;4.09;73.93
45078;BME280;60508;42.622;25.416;2023-01-30T08:50:31;96868.91;;;4.53;72.52
45078;BME280;60508;42.622;25.416;2023-01-30T08:53:05;96867.47;;;4.84;70.89
45078;BME280;60508;42.622;25.416;2023-01-30T08:55:31;96866.44;;;5.05;69.04
45078;BME280;60508;42.622;25.416;2023-01-30T08:57:58;96859.69;;;5.22;68.23
45078;BME280;60508;42.622;25.416;2023-01-30T09:00:23;96849.41;;;5.46;67.56
45078;BME280;60508;42.622;25.416;2023-01-30T09:02:54;96853.66;;;5.60;65.76
45078;BME280;60508;42.622;25.416;2023-01-30T09:05:20;96858.25;;;5.92;65.27
45078;BME280;60508;42.622;25.416;2023-01-30T09:07:47;96846.50;;;6.13;64.50
45078;BME280;60508;42.622;25.416;2023-01-30T09:10:13;96853.34;;;6.34;63.88
45078;BME280;60508;42.622;25.416;2023-01-30T09:12:39;96840.63;;;7.55;60.08
45078;BME280;60508;42.622;25.416;2023-01-30T09:15:05;96844.31;;;7.91;57.12
45078;BME280;60508;42.622;25.416;2023-01-30T09:17:31;96840.25;;;7.89;57.61
45078;BME280;60508;42.622;25.416;2023-01-30T09:19:58;96838.59;;;8.06;56.77
45078;BME280;60508;42.622;25.416;2023-01-30T09:22:25;96830.34;;;8.08;55.53
45078;BME280;60508;42.622;25.416;2023-01-30T09:24:51;96836.41;;;8.15;54.76
45078;BME280;60508;42.622;25.416;2023-01-30T09:27:17;96817.34;;;7.93;54.66
45078;BME280;60508;42.622;25.416;2023-01-30T09:29:43;96814.66;;;7.93;54.82
45078;BME280;60508;42.622;25.416;2023-01-30T09:32:09;96812.06;;;8.04;54.08
45078;BME280;60508;42.622;25.416;2023-01-30T09:34:35;96822.16;;;8.02;52.77
45078;BME280;60508;42.622;25.416;2023-01-30T09:37:01;96814.75;;;8.35;52.10
45078;BME280;60508;42.622;25.416;2023-01-30T09:39:29;96807.59;;;8.59;50.87
45078;BME280;60508;42.622;25.416;2023-01-30T09:44:50;96808.47;;;9.30;48.62
45078;BME280;60508;42.622;25.416;2023-01-30T09:47:37;96800.09;;;9.03;46.54
45078;BME280;60508;42.622;25.416;2023-01-30T09:52:54;96784.16;;;7.26;50.21
45078;BME280;60508;42.622;25.416;2023-01-30T09:55:25;96778.25;;;7.06;52.37
45078;BME280;60508;42.622;25.416;2023-01-30T09:57:53;96769.53;;;7.47;51.24
45078;BME280;60508;42.622;25.416;2023-01-30T10:00:33;96768.78;;;7.59;51.59
45078;BME280;60508;42.622;25.416;2023-01-30T10:03:09;96772.34;;;7.90;50.36
45078;BME280;60508;42.622;25.416;2023-01-30T10:22:48;96731.56;;;11.02;40.98
45078;BME280;60508;42.622;25.416;2023-01-30T10:24:55;96726.59;;;10.26;42.83
45078;BME280;60508;42.622;25.416;2023-01-30T10:27:25;96721.03;;;9.70;44.83
45078;BME280;60508;42.622;25.416;2023-01-30T10:29:56;96718.78;;;9.79;43.46
45078;BME280;60508;42.622;25.416;2023-01-30T10:32:54;96717.47;;;9.00;43.76
45078;BME280;60508;42.622;25.416;2023-01-30T10:35:26;96697.63;;;8.42;44.39
45078;BME280;60508;42.622;25.416;2023-01-30T10:38:01;96704.66;;;8.43;44.81
45078;BME280;60508;42.622;25.416;2023-01-30T10:40:38;96689.50;;;8.37;45.37
45078;BME280;60508;42.622;25.416;2023-01-30T10:51:02;96661.66;;;6.93;46.37
45078;BME280;60508;42.622;25.416;2023-01-30T10:59:30;96665.41;;;7.04;43.62
45078;BME280;60508;42.622;25.416;2023-01-30T11:04:59;96655.34;;;7.36;43.06
45078;BME280;60508;42.622;25.416;2023-01-30T11:07:30;96655.34;;;7.97;41.72
45078;BME280;60508;42.622;25.416;2023-01-30T11:09:57;96636.53;;;8.74;40.67
45078;BME280;60508;42.622;25.416;2023-01-30T11:12:24;96633.56;;;9.86;38.08
45078;BME280;60508;42.622;25.416;2023-01-30T11:15:00;96629.81;;;9.12;38.42
45078;BME280;60508;42.622;25.416;2023-01-30T11:17:36;96629.19;;;9.51;37.36
45078;BME280;60508;42.622;25.416;2023-01-30T11:20:12;96614.97;;;9.50;37.43
45078;BME280;60508;42.622;25.416;2023-01-30T11:22:47;96608.72;;;9.16;36.96
45078;BME280;60508;42.622;25.416;2023-01-30T11:25:18;96603.13;;;9.18;38.35
45078;BME280;60508;42.622;25.416;2023-01-30T11:27:52;96603.34;;;10.81;36.05
45078;BME280;60508;42.622;25.416;2023-01-30T11:30:22;96587.69;;;14.24;30.51
45078;BME280;60508;42.622;25.416;2023-01-30T11:33:04;96589.63;;;16.09;27.21
45078;BME280;60508;42.622;25.416;2023-01-30T11:35:32;96582.78;;;13.49;29.29
45078;BME280;60508;42.622;25.416;2023-01-30T11:38:23;96577.09;;;12.29;31.06
45078;BME280;60508;42.622;25.416;2023-01-30T11:41:04;96572.81;;;12.33;30.81
45078;BME280;60508;42.622;25.416;2023-01-30T11:43:32;96564.16;;;11.34;32.57
45078;BME280;60508;42.622;25.416;2023-01-30T11:45:59;96566.00;;;9.72;34.45
45078;BME280;60508;42.622;25.416;2023-01-30T11:48:28;96555.88;;;8.47;37.32
45078;BME280;60508;42.622;25.416;2023-01-30T11:50:59;96560.28;;;7.71;39.07
45078;BME280;60508;42.622;25.416;2023-01-30T11:55:59;96552.72;;;6.95;41.03
45078;BME280;60508;42.622;25.416;2023-01-30T11:58:34;96550.16;;;6.70;41.22
45078;BME280;60508;42.622;25.416;2023-01-30T12:01:01;96533.06;;;6.22;42.88
45078;BME280;60508;42.622;25.416;2023-01-30T12:03:27;96540.09;;;5.98;42.91
45078;BME280;60508;42.622;25.416;2023-01-30T12:05:56;96530.31;;;5.85;43.48
45078;BME280;60508;42.622;25.416;2023-01-30T12:08:26;96531.03;;;5.74;44.30
45078;BME280;60508;42.622;25.416;2023-01-30T12:10:55;96510.72;;;5.54;44.81
45078;BME280;60508;42.622;25.416;2023-01-30T12:16:00;96514.25;;;5.16;45.69
45078;BME280;60508;42.622;25.416;2023-01-30T12:18:36;96515.53;;;5.07;47.09
45078;BME280;60508;42.622;25.416;2023-01-30T12:21:42;96515.72;;;5.12;46.41
45078;BME280;60508;42.622;25.416;2023-01-30T12:24:25;96521.66;;;5.14;46.88
45078;BME280;60508;42.622;25.416;2023-01-30T12:27:00;96508.94;;;5.16;46.49
45078;BME280;60508;42.622;25.416;2023-01-30T12:29:41;96509.84;;;5.03;46.96
45078;BME280;60508;42.622;25.416;2023-01-30T12:32:20;96511.53;;;4.98;46.42
45078;BME280;60508;42.622;25.416;2023-01-30T12:34:49;96507.38;;;5.02;46.79
45078;BME280;60508;42.622;25.416;2023-01-30T12:45:34;96508.16;;;5.09;46.30
45078;BME280;60508;42.622;25.416;2023-01-30T12:53:51;96501.50;;;4.93;46.13
45078;BME280;60508;42.622;25.416;2023-01-30T12:59:09;96487.56;;;4.98;47.11
45078;BME280;60508;42.622;25.416;2023-01-30T13:10:21;96492.84;;;5.04;47.01
45078;BME280;60508;42.622;25.416;2023-01-30T13:13:06;96489.34;;;5.04;46.51
45078;BME280;60508;42.622;25.416;2023-01-30T13:26:12;96472.09;;;4.36;58.24
45078;BME280;60508;42.622;25.416;2023-01-30T13:28:52;96470.34;;;4.16;58.93
45078;BME280;60508;42.622;25.416;2023-01-30T13:31:23;96472.47;;;4.01;59.86
45078;BME280;60508;42.622;25.416;2023-01-30T13:34:11;96471.03;;;3.92;60.65
45078;BME280;60508;42.622;25.416;2023-01-30T13:41:55;96461.06;;;3.74;61.88
45078;BME280;60508;42.622;25.416;2023-01-30T13:44:26;96467.38;;;3.79;61.65
45078;BME280;60508;42.622;25.416;2023-01-30T13:46:55;96452.50;;;3.72;61.47
45078;BME280;60508;42.622;25.416;2023-01-30T13:52:25;96463.53;;;3.75;61.82
45078;BME280;60508;42.622;25.416;2023-01-30T14:03:14;96436.34;;;3.66;62.40
45078;BME280;60508;42.622;25.416;2023-01-30T14:08:26;96447.16;;;3.85;62.13
45078;BME280;60508;42.622;25.416;2023-01-30T14:10:54;96444.06;;;3.88;62.72
45078;BME280;60508;42.622;25.416;2023-01-30T14:13:22;96448.97;;;3.91;62.32
45078;BME280;60508;42.622;25.416;2023-01-30T14:18:31;96452.25;;;3.87;62.63
45078;BME280;60508;42.622;25.416;2023-01-30T14:23:59;96450.41;;;3.87;62.90
45078;BME280;60508;42.622;25.416;2023-01-30T14:34:42;96441.25;;;3.70;64.64
45078;BME280;60508;42.622;25.416;2023-01-30T14:40:00;96437.38;;;3.65;64.60
45078;BME280;60508;42.622;25.416;2023-01-30T14:42:27;96437.41;;;3.59;64.97
45078;BME280;60508;42.622;25.416;2023-01-30T14:45:13;96433.09;;;3.58;64.69
45078;BME280;60508;42.622;25.416;2023-01-30T14:47:41;96437.22;;;3.54;65.47
45078;BME280;60508;42.622;25.416;2023-01-30T14:50:21;96436.19;;;3.41;65.21
45078;BME280;60508;42.622;25.416;2023-01-30T14:52:48;96435.59;;;3.39;65.48
45078;BME280;60508;42.622;25.416;2023-01-30T14:55:22;96434.16;;;3.37;65.29
45078;BME280;60508;42.622;25.416;2023-01-30T14:57:54;96434.97;;;3.37;65.13
45078;BME280;60508;42.622;25.416;2023-01-30T15:00:25;96423.75;;;3.35;64.76
45078;BME280;60508;42.622;25.416;2023-01-30T15:02:55;96426.03;;;3.18;65.31
45078;BME280;60508;42.622;25.416;2023-01-30T15:05:31;96426.81;;;3.25;65.34
45078;BME280;60508;42.622;25.416;2023-01-30T15:08:05;96420.50;;;3.20;66.04
45078;BME280;60508;42.622;25.416;2023-01-30T15:10:40;96438.66;;;3.09;66.39
45078;BME280;60508;42.622;25.416;2023-01-30T15:13:43;96432.16;;;3.12;66.65
45078;BME280;60508;42.622;25.416;2023-01-30T15:16:36;96430.88;;;3.21;65.91
45078;BME280;60508;42.622;25.416;2023-01-30T15:27:51;96432.16;;;3.12;66.61
45078;BME280;60508;42.622;25.416;2023-01-30T15:30:24;96433.97;;;3.05;66.89
45078;BME280;60508;42.622;25.416;2023-01-30T15:33:26;96427.44;;;2.94;67.02
45078;BME280;60508;42.622;25.416;2023-01-30T15:35:53;96436.41;;;3.00;67.32
45078;BME280;60508;42.622;25.416;2023-01-30T15:38:25;96426.22;;;2.97;67.30
45078;BME280;60508;42.622;25.416;2023-01-30T15:40:56;96433.75;;;3.00;67.02
45078;BME280;60508;42.622;25.416;2023-01-30T15:51:49;96415.78;;;3.02;66.54
45078;BME280;60508;42.622;25.416;2023-01-30T15:54:19;96422.94;;;3.01;67.00
45078;BME280;60508;42.622;25.416;2023-01-30T15:56:47;96408.88;;;3.01;66.50